Minerva Antarctica — ZCPE — position and weather

sailwx.info

Track history (hours):
 
Tides and Currents Weather Stations Pressure Air Temp Water Temp Dewpoint Dewpoint Depression Visibility Wind Speed Wind Dir Waves Ship Positions

Minerva Antarctica

Last reported at 2018-May-24 23:46 UTC. Time now 2018-May-25 01:30 UTC.
Position N 71°03' E 030°26'.

Length 250 m; draft 8 m.

Type: Ship. MMSI: 319562000.

Date/timePositionNaut miles runAvg speedWind from/ knotsBaromVisibWave heightAir tempDewpointWater temp
2018-May-24 23:46N 71°03' E 030°26'2 8.9
2018-May-24 23:30N 71°04' E 030°20'5 9.1
2018-May-24 23:00N 71°07' E 030°10'5 9.0
2018-May-24 22:29N 71°10' E 029°58'4 8.8
2018-May-24 22:00N 71°13' E 029°48'4 8.7
2018-May-24 21:29N 71°15' E 029°36'4 8.4
2018-May-24 20:59N 71°18' E 029°26'4 8.5
2018-May-24 20:30N 71°20' E 029°15'  
2018-May-20 17:43N 59°31' E 004°12'411.0
2018-May-20 17:23N 59°27' E 004°12'411.1
2018-May-20 16:59N 59°22' E 004°12'1211.3
2018-May-20 15:54N 59°10' E 004°11'1011.3
2018-May-20 15:00N 59°00' E 004°12'611.3
2018-May-20 14:29N 58°54' E 004°11'511.1
2018-May-20 14:00N 58°49' E 004°11'510.9
2018-May-20 13:30N 58°43' E 004°11'611.2
2018-May-20 13:00N 58°38' E 004°10'611.5
2018-May-20 12:30N 58°32' E 004°10'611.2
2018-May-20 12:00N 58°27' E 004°09'611.1
2018-May-20 11:30N 58°21' E 004°09'611.0
2018-May-20 10:58N 58°15' E 004°09'511.1
2018-May-20 10:30N 58°10' E 004°08'611.2
2018-May-20 10:00N 58°04' E 004°08'711.1
2018-May-20 09:21N 57°57' E 004°07'511.1
2018-May-20 08:53N 57°52' E 004°06'1410.4
2018-May-20 07:34N 57°38' E 004°11'110.8
2018-May-20 07:28N 57°38' E 004°12'510.6
2018-May-20 07:00N 57°34' E 004°18'610.3
2018-May-20 06:25N 57°28' E 004°20'510.8
2018-May-20 05:59N 57°23' E 004°20'610.8
2018-May-20 05:28N 57°18' E 004°21'610.7
2018-May-20 04:57N 57°12' E 004°21'510.6
2018-May-20 04:29N 57°07' E 004°21'510.7
2018-May-20 04:00N 57°02' E 004°22'510.6
2018-May-20 03:30N 56°57' E 004°22'610.7
2018-May-20 02:58N 56°51' E 004°23'510.7
2018-May-20 02:29N 56°46' E 004°23'610.7
2018-May-20 01:56N 56°40' E 004°24'710.8
2018-May-20 01:19N 56°33' E 004°25'310.9
2018-May-20 01:00N 56°30' E 004°25'610.9
2018-May-20 00:28N 56°24' E 004°25'610.9
2018-May-19 23:53N 56°18' E 004°25'511.0
2018-May-19 23:27N 56°13' E 004°24'511.1
2018-May-19 22:58N 56°08' E 004°23'511.1
2018-May-19 22:30N 56°02' E 004°22'611.1
2018-May-19 22:00N 55°57' E 004°21'611.0
2018-May-19 21:29N 55°51' E 004°19'1311.1
2018-May-19 20:19N 55°38' E 004°19'2211.0
2018-May-19 18:17N 55°16' E 004°21'310.9
2018-May-19 18:00N 55°13' E 004°21'95 9.7
2018-May-19 08:12N 53°38' E 004°04'4610.9
2018-May-19 04:01N 52°60' E 003°24'111.2
2018-May-19 03:53N 52°59' E 003°23'610.9
2018-May-19 03:20N 52°53' E 003°20'410.6
2018-May-19 02:59N 52°49' E 003°18'510.3
2018-May-19 02:30N 52°45' E 003°15'5 9.9
2018-May-19 01:59N 52°40' E 003°14'12 9.3
2018-May-19 00:45N 52°28' E 003°14'4 9.0
2018-May-19 00:21N 52°25' E 003°14'3 8.9
2018-May-19 00:00N 52°21' E 003°14'5 9.5
2018-May-18 23:29N 52°18' E 003°19'5 9.6
2018-May-18 23:00N 52°14' E 003°24'5 9.9
2018-May-18 22:30N 52°11' E 003°30'3 5.8
2018-May-18 21:57N 52°09' E 003°34'0 0.2
2018-May-18 21:30N 52°09' E 003°34'0 0.0
2018-May-18 21:00N 52°09' E 003°34'0 0.0
2018-May-18 20:24N 52°09' E 003°34'0 0.0
2018-May-18 19:51N 52°09' E 003°34'0 0.2
2018-May-18 19:30N 52°09' E 003°35'0 0.2
2018-May-18 18:51N 52°09' E 003°35'0 0.0
2018-May-18 18:30N 52°09' E 003°35'0 0.1
2018-May-18 17:57N 52°09' E 003°35'0 0.0
2018-May-18 17:30N 52°09' E 003°35'0 0.0
2018-May-18 16:57N 52°09' E 003°35'0 0.0
2018-May-18 16:27N 52°09' E 003°35'0 0.0
2018-May-18 16:00N 52°09' E 003°35'0 0.1
2018-May-18 15:30N 52°09' E 003°35'0 0.2
2018-May-18 15:00N 52°09' E 003°35'0 0.1
2018-May-18 14:27N 52°09' E 003°35'0 0.1
2018-May-18 13:57N 52°09' E 003°34'0 0.0
2018-May-18 13:30N 52°09' E 003°34'0 0.0
2018-May-18 13:00N 52°09' E 003°34'0 0.0
2018-May-18 12:30N 52°09' E 003°34'0 0.0
2018-May-18 12:00N 52°09' E 003°34'0 0.0
2018-May-18 11:30N 52°09' E 003°34'0 0.0
2018-May-18 11:00N 52°09' E 003°34'0 0.0
2018-May-18 10:27N 52°09' E 003°34'0 0.0
2018-May-18 10:00N 52°09' E 003°34'0 0.0
2018-May-18 09:30N 52°09' E 003°34'0 0.0
2018-May-18 09:00N 52°09' E 003°34'0 0.1
2018-May-18 08:21N 52°09' E 003°34'0 0.1
2018-May-18 07:57N 52°09' E 003°34'0 0.0
2018-May-18 07:30N 52°09' E 003°34'0 0.1
2018-May-18 07:00N 52°09' E 003°34'0 0.3
2018-May-18 06:30N 52°09' E 003°35'0 0.1
2018-May-18 06:00N 52°09' E 003°35'0 0.0
2018-May-18 05:30N 52°09' E 003°35'0 0.1
2018-May-18 05:00N 52°09' E 003°35'0 0.0
2018-May-18 04:30N 52°09' E 003°35'0 0.0
2018-May-18 03:54N 52°09' E 003°35'0 0.0
2018-May-18 03:30N 52°09' E 003°35'0 0.1
2018-May-18 02:57N 52°09' E 003°35'0 0.2
2018-May-18 02:30N 52°09' E 003°35'0 0.2
2018-May-18 01:54N 52°09' E 003°35'0 0.1
2018-May-18 01:27N 52°09' E 003°34'0 0.0
2018-May-18 01:00N 52°09' E 003°34'0 0.0
2018-May-18 00:30N 52°09' E 003°34'0 0.0
2018-May-18 00:00N 52°09' E 003°34'0 0.0
2018-May-17 23:30N 52°09' E 003°34'0 0.0
2018-May-17 23:00N 52°09' E 003°34'0 0.0
2018-May-17 22:30N 52°09' E 003°34'0 0.0
2018-May-17 21:57N 52°09' E 003°34'0 0.0
2018-May-17 21:30N 52°09' E 003°34'0 0.0
2018-May-17 21:00N 52°09' E 003°34'0 0.0
2018-May-17 20:24N 52°09' E 003°34'0 0.0
2018-May-17 19:54N 52°09' E 003°34'0 0.0
2018-May-17 19:30N 52°09' E 003°34'0 0.1
2018-May-17 19:00N 52°09' E 003°34'0 0.1
2018-May-17 18:27N 52°09' E 003°34'0 0.0
2018-May-17 17:57N 52°09' E 003°34'0 0.2
2018-May-17 17:30N 52°09' E 003°35'0 0.1
2018-May-17 16:39N 52°09' E 003°35'0 0.1
2018-May-17 16:30N 52°09' E 003°35'0 0.0
2018-May-17 15:57N 52°09' E 003°35'0 0.1
2018-May-17 15:30N 52°09' E 003°35'0 0.1
2018-May-17 15:00N 52°09' E 003°35'0 0.0
2018-May-17 14:27N 52°09' E 003°35'0 0.2
2018-May-17 14:00N 52°09' E 003°35'0 0.2
2018-May-17 13:30N 52°09' E 003°34'0 0.1
2018-May-17 13:00N 52°09' E 003°34'0 0.0
2018-May-17 12:21N 52°09' E 003°34'0 0.0
2018-May-17 12:00N 52°09' E 003°34'0 0.0
2018-May-17 11:30N 52°09' E 003°34'0 0.1
2018-May-17 11:00N 52°09' E 003°34'0 0.0
2018-May-17 10:30N 52°09' E 003°34'0 0.0
2018-May-17 10:00N 52°09' E 003°34'0 0.0
2018-May-17 09:30N 52°09' E 003°34'0 0.0
2018-May-17 09:00N 52°09' E 003°34'0 0.1
2018-May-17 08:18N 52°09' E 003°34'0 0.1
2018-May-17 08:00N 52°09' E 003°34'0 0.0
2018-May-17 07:27N 52°09' E 003°34'0 0.1
2018-May-17 06:54N 52°09' E 003°34'0 0.1
2018-May-17 06:30N 52°09' E 003°34'0 0.1
2018-May-17 05:54N 52°09' E 003°34'0 0.1
2018-May-17 05:27N 52°09' E 003°34'0 0.1
2018-May-17 05:00N 52°09' E 003°34'0 0.1
2018-May-17 04:27N 52°09' E 003°35'0 0.0
2018-May-17 04:00N 52°09' E 003°35'0 0.0
2018-May-17 03:24N 52°09' E 003°35'0 0.0
2018-May-17 02:45N 52°09' E 003°35'0 0.0
2018-May-17 02:27N 52°09' E 003°35'0 0.1
2018-May-17 02:00N 52°09' E 003°35'0 0.0
2018-May-17 01:27N 52°09' E 003°35'0 0.1
2018-May-17 01:00N 52°09' E 003°35'0 0.3
2018-May-17 00:30N 52°09' E 003°34'0 0.0
2018-May-16 23:57N 52°09' E 003°34'0 0.1
2018-May-16 23:30N 52°09' E 003°34'0 0.0
2018-May-16 22:54N 52°09' E 003°34'0 0.1
2018-May-16 22:30N 52°09' E 003°34'0 0.0
2018-May-16 22:00N 52°09' E 003°34'0 0.0
2018-May-16 21:30N 52°09' E 003°34'0 0.0
2018-May-16 20:57N 52°09' E 003°34'0 0.0
2018-May-16 20:27N 52°09' E 003°34'0 0.1
2018-May-16 20:00N 52°09' E 003°34'0 0.0
2018-May-16 19:30N 52°09' E 003°34'0 0.0
2018-May-16 18:57N 52°09' E 003°34'0 0.1
2018-May-16 18:30N 52°09' E 003°34'0 0.1
2018-May-16 17:57N 52°09' E 003°34'0 0.1
2018-May-16 17:30N 52°09' E 003°34'0 0.1
2018-May-16 16:57N 52°09' E 003°34'0 0.1
2018-May-16 16:30N 52°09' E 003°34'0 0.0
2018-May-16 16:00N 52°09' E 003°34'0 0.1
2018-May-16 15:30N 52°09' E 003°35'0 0.0
2018-May-16 14:51N 52°09' E 003°35'0 0.0
2018-May-16 14:27N 52°09' E 003°35'0 0.0
2018-May-16 13:51N 52°09' E 003°34'0 0.0
2018-May-16 13:21N 52°09' E 003°35'0 0.0
2018-May-16 12:57N 52°09' E 003°35'0 0.0
2018-May-16 12:30N 52°09' E 003°34'0 0.2
2018-May-16 12:00N 52°09' E 003°34'0 0.0
2018-May-16 11:27N 52°09' E 003°34'0 0.1
2018-May-16 11:00N 52°09' E 003°34'0 0.0
2018-May-16 10:21N 52°09' E 003°34'0 0.1
2018-May-16 10:00N 52°09' E 003°34'0 0.0
2018-May-16 09:30N 52°09' E 003°34'0 0.0
2018-May-16 09:00N 52°09' E 003°34'0 0.0
2018-May-16 08:30N 52°09' E 003°34'0 0.0
2018-May-16 07:48N 52°09' E 003°34'0 0.0
2018-May-16 07:30N 52°09' E 003°34'0 0.1
2018-May-16 07:00N 52°09' E 003°34'0 0.1
2018-May-16 06:30N 52°09' E 003°34'0 0.1
2018-May-16 05:57N 52°09' E 003°34'0 0.0
2018-May-16 05:30N 52°09' E 003°34'0 0.1
2018-May-16 04:54N 52°09' E 003°35'0 0.2
2018-May-16 04:30N 52°09' E 003°35'0 0.1
2018-May-16 04:00N 52°09' E 003°35'0 0.1
2018-May-16 03:30N 52°09' E 003°35'0 0.0
2018-May-16 03:00N 52°09' E 003°35'0 0.0
2018-May-16 02:30N 52°09' E 003°35'0 0.0
2018-May-16 02:00N 52°09' E 003°35'0 0.1
2018-May-16 01:30N 52°09' E 003°35'0 0.2
2018-May-16 01:00N 52°09' E 003°35'0 0.2
2018-May-16 00:30N 52°09' E 003°35'0 0.1
2018-May-16 00:00N 52°09' E 003°34'0 0.0
2018-May-15 23:30N 52°09' E 003°34'0 0.0
2018-May-15 22:54N 52°09' E 003°34'0 0.0
2018-May-15 22:30N 52°09' E 003°34'0 0.0
2018-May-15 21:30N 52°09' E 003°34'0 0.0
2018-May-15 21:00N 52°09' E 003°34'0 0.0
2018-May-15 20:30N 52°09' E 003°34'0 0.0
2018-May-15 20:00N 52°09' E 003°34'0 0.0
2018-May-15 19:30N 52°09' E 003°34'0 0.0
2018-May-15 19:00N 52°09' E 003°34'0 0.0
2018-May-15 18:30N 52°09' E 003°34'0 0.1
2018-May-15 18:00N 52°09' E 003°34'0 0.1
2018-May-15 17:30N 52°09' E 003°35'0 0.2
2018-May-15 16:54N 52°09' E 003°35'0 0.2
2018-May-15 16:30N 52°09' E 003°35'0 0.0
2018-May-15 16:00N 52°09' E 003°35'0 0.0
2018-May-15 15:30N 52°09' E 003°35'0 0.0
2018-May-15 15:00N 52°09' E 003°35'0 0.0
2018-May-15 14:30N 52°09' E 003°35'0 0.0
2018-May-15 14:00N 52°09' E 003°35'0 0.0
2018-May-15 13:27N 52°09' E 003°35'0 0.1
2018-May-15 12:57N 52°09' E 003°35'0 0.2
2018-May-15 12:30N 52°09' E 003°35'0 0.1
2018-May-15 11:57N 52°09' E 003°34'0 0.1
2018-May-15 11:30N 52°09' E 003°34'0 0.0
2018-May-15 11:00N 52°09' E 003°34'0 0.0
2018-May-15 10:30N 52°09' E 003°34'0 0.0
2018-May-15 10:00N 52°09' E 003°34'0 0.0
2018-May-15 09:27N 52°09' E 003°34'0 0.0
2018-May-15 08:54N 52°09' E 003°34'0 0.0
2018-May-15 08:30N 52°09' E 003°34'0 0.0
2018-May-15 08:00N 52°09' E 003°34'0 0.0
2018-May-15 07:30N 52°09' E 003°34'0 0.0
2018-May-15 07:00N 52°09' E 003°34'0 0.0
2018-May-15 06:30N 52°09' E 003°34'0 0.0
2018-May-15 05:54N 52°09' E 003°35'0 0.0
2018-May-15 04:54N 52°09' E 003°35'0 0.1
2018-May-15 04:24N 52°09' E 003°35'0 0.1
2018-May-15 03:54N 52°09' E 003°35'0 0.0
2018-May-15 03:24N 52°09' E 003°35'0 0.0
2018-May-15 02:54N 52°09' E 003°35'0 0.1
2018-May-15 02:30N 52°09' E 003°35'0 0.1
2018-May-15 02:00N 52°09' E 003°35'0 0.1
2018-May-15 01:27N 52°09' E 003°35'0 0.0
2018-May-15 00:57N 52°09' E 003°35'0 0.1
2018-May-15 00:24N 52°09' E 003°35'0 0.2
2018-May-15 00:00N 52°09' E 003°35'  
Track history (hours):
 
Tides and Currents Weather Stations Pressure Air Temp Water Temp Dewpoint Dewpoint Depression Visibility Wind Speed Wind Dir Waves Ship Positions

Minerva Antarctica

Last reported at 2018-May-24 23:46 UTC. Time now 2018-May-25 01:30 UTC.
Position N 71°03' E 030°26'.

Length 250 m; draft 8 m.

Type: Ship. MMSI: 319562000.

Date/timePositionNaut miles runAvg speedWind from/ knotsBaromVisibWave heightAir tempDewpointWater temp
2018-May-24 23:46N 71°03' E 030°26'2 8.9
2018-May-24 23:30N 71°04' E 030°20'5 9.1
2018-May-24 23:00N 71°07' E 030°10'5 9.0
2018-May-24 22:29N 71°10' E 029°58'4 8.8
2018-May-24 22:00N 71°13' E 029°48'4 8.7
2018-May-24 21:29N 71°15' E 029°36'4 8.4
2018-May-24 20:59N 71°18' E 029°26'4 8.5
2018-May-24 20:30N 71°20' E 029°15'  
2018-May-20 17:43N 59°31' E 004°12'411.0
2018-May-20 17:23N 59°27' E 004°12'411.1
2018-May-20 16:59N 59°22' E 004°12'1211.3
2018-May-20 15:54N 59°10' E 004°11'1011.3
2018-May-20 15:00N 59°00' E 004°12'611.3
2018-May-20 14:29N 58°54' E 004°11'511.1
2018-May-20 14:00N 58°49' E 004°11'510.9
2018-May-20 13:30N 58°43' E 004°11'611.2
2018-May-20 13:00N 58°38' E 004°10'611.5
2018-May-20 12:30N 58°32' E 004°10'611.2
2018-May-20 12:00N 58°27' E 004°09'611.1
2018-May-20 11:30N 58°21' E 004°09'611.0
2018-May-20 10:58N 58°15' E 004°09'511.1
2018-May-20 10:30N 58°10' E 004°08'611.2
2018-May-20 10:00N 58°04' E 004°08'711.1
2018-May-20 09:21N 57°57' E 004°07'511.1
2018-May-20 08:53N 57°52' E 004°06'1410.4
2018-May-20 07:34N 57°38' E 004°11'110.8
2018-May-20 07:28N 57°38' E 004°12'510.6
2018-May-20 07:00N 57°34' E 004°18'610.3
2018-May-20 06:25N 57°28' E 004°20'510.8
2018-May-20 05:59N 57°23' E 004°20'610.8
2018-May-20 05:28N 57°18' E 004°21'610.7
2018-May-20 04:57N 57°12' E 004°21'510.6
2018-May-20 04:29N 57°07' E 004°21'510.7
2018-May-20 04:00N 57°02' E 004°22'510.6
2018-May-20 03:30N 56°57' E 004°22'610.7
2018-May-20 02:58N 56°51' E 004°23'510.7
2018-May-20 02:29N 56°46' E 004°23'610.7
2018-May-20 01:56N 56°40' E 004°24'710.8
2018-May-20 01:19N 56°33' E 004°25'310.9
2018-May-20 01:00N 56°30' E 004°25'610.9
2018-May-20 00:28N 56°24' E 004°25'610.9
2018-May-19 23:53N 56°18' E 004°25'511.0
2018-May-19 23:27N 56°13' E 004°24'511.1
2018-May-19 22:58N 56°08' E 004°23'511.1
2018-May-19 22:30N 56°02' E 004°22'611.1
2018-May-19 22:00N 55°57' E 004°21'611.0
2018-May-19 21:29N 55°51' E 004°19'1311.1
2018-May-19 20:19N 55°38' E 004°19'2211.0
2018-May-19 18:17N 55°16' E 004°21'310.9
2018-May-19 18:00N 55°13' E 004°21'95 9.7
2018-May-19 08:12N 53°38' E 004°04'4610.9
2018-May-19 04:01N 52°60' E 003°24'111.2
2018-May-19 03:53N 52°59' E 003°23'610.9
2018-May-19 03:20N 52°53' E 003°20'410.6
2018-May-19 02:59N 52°49' E 003°18'510.3
2018-May-19 02:30N 52°45' E 003°15'5 9.9
2018-May-19 01:59N 52°40' E 003°14'12 9.3
2018-May-19 00:45N 52°28' E 003°14'4 9.0
2018-May-19 00:21N 52°25' E 003°14'3 8.9
2018-May-19 00:00N 52°21' E 003°14'5 9.5
2018-May-18 23:29N 52°18' E 003°19'5 9.6
2018-May-18 23:00N 52°14' E 003°24'5 9.9
2018-May-18 22:30N 52°11' E 003°30'3 5.8
2018-May-18 21:57N 52°09' E 003°34'0 0.2
2018-May-18 21:30N 52°09' E 003°34'0 0.0
2018-May-18 21:00N 52°09' E 003°34'0 0.0
2018-May-18 20:24N 52°09' E 003°34'0 0.0
2018-May-18 19:51N 52°09' E 003°34'0 0.2
2018-May-18 19:30N 52°09' E 003°35'0 0.2
2018-May-18 18:51N 52°09' E 003°35'0 0.0
2018-May-18 18:30N 52°09' E 003°35'0 0.1
2018-May-18 17:57N 52°09' E 003°35'0 0.0
2018-May-18 17:30N 52°09' E 003°35'0 0.0
2018-May-18 16:57N 52°09' E 003°35'0 0.0
2018-May-18 16:27N 52°09' E 003°35'0 0.0
2018-May-18 16:00N 52°09' E 003°35'0 0.1
2018-May-18 15:30N 52°09' E 003°35'0 0.2
2018-May-18 15:00N 52°09' E 003°35'0 0.1
2018-May-18 14:27N 52°09' E 003°35'0 0.1
2018-May-18 13:57N 52°09' E 003°34'0 0.0
2018-May-18 13:30N 52°09' E 003°34'0 0.0
2018-May-18 13:00N 52°09' E 003°34'0 0.0
2018-May-18 12:30N 52°09' E 003°34'0 0.0
2018-May-18 12:00N 52°09' E 003°34'0 0.0
2018-May-18 11:30N 52°09' E 003°34'0 0.0
2018-May-18 11:00N 52°09' E 003°34'0 0.0
2018-May-18 10:27N 52°09' E 003°34'0 0.0
2018-May-18 10:00N 52°09' E 003°34'0 0.0
2018-May-18 09:30N 52°09' E 003°34'0 0.0
2018-May-18 09:00N 52°09' E 003°34'0 0.1
2018-May-18 08:21N 52°09' E 003°34'0 0.1
2018-May-18 07:57N 52°09' E 003°34'0 0.0
2018-May-18 07:30N 52°09' E 003°34'0 0.1
2018-May-18 07:00N 52°09' E 003°34'0 0.3
2018-May-18 06:30N 52°09' E 003°35'0 0.1
2018-May-18 06:00N 52°09' E 003°35'0 0.0
2018-May-18 05:30N 52°09' E 003°35'0 0.1
2018-May-18 05:00N 52°09' E 003°35'0 0.0
2018-May-18 04:30N 52°09' E 003°35'0 0.0
2018-May-18 03:54N 52°09' E 003°35'0 0.0
2018-May-18 03:30N 52°09' E 003°35'0 0.1
2018-May-18 02:57N 52°09' E 003°35'0 0.2
2018-May-18 02:30N 52°09' E 003°35'0 0.2
2018-May-18 01:54N 52°09' E 003°35'0 0.1
2018-May-18 01:27N 52°09' E 003°34'0 0.0
2018-May-18 01:00N 52°09' E 003°34'0 0.0
2018-May-18 00:30N 52°09' E 003°34'0 0.0
2018-May-18 00:00N 52°09' E 003°34'0 0.0
2018-May-17 23:30N 52°09' E 003°34'0 0.0
2018-May-17 23:00N 52°09' E 003°34'0 0.0
2018-May-17 22:30N 52°09' E 003°34'0 0.0
2018-May-17 21:57N 52°09' E 003°34'0 0.0
2018-May-17 21:30N 52°09' E 003°34'0 0.0
2018-May-17 21:00N 52°09' E 003°34'0 0.0
2018-May-17 20:24N 52°09' E 003°34'0 0.0
2018-May-17 19:54N 52°09' E 003°34'0 0.0
2018-May-17 19:30N 52°09' E 003°34'0 0.1
2018-May-17 19:00N 52°09' E 003°34'0 0.1
2018-May-17 18:27N 52°09' E 003°34'0 0.0
2018-May-17 17:57N 52°09' E 003°34'0 0.2
2018-May-17 17:30N 52°09' E 003°35'0 0.1
2018-May-17 16:39N 52°09' E 003°35'0 0.1
2018-May-17 16:30N 52°09' E 003°35'0 0.0
2018-May-17 15:57N 52°09' E 003°35'0 0.1
2018-May-17 15:30N 52°09' E 003°35'0 0.1
2018-May-17 15:00N 52°09' E 003°35'0 0.0
2018-May-17 14:27N 52°09' E 003°35'0 0.2
2018-May-17 14:00N 52°09' E 003°35'0 0.2
2018-May-17 13:30N 52°09' E 003°34'0 0.1
2018-May-17 13:00N 52°09' E 003°34'0 0.0
2018-May-17 12:21N 52°09' E 003°34'0 0.0
2018-May-17 12:00N 52°09' E 003°34'0 0.0
2018-May-17 11:30N 52°09' E 003°34'0 0.1
2018-May-17 11:00N 52°09' E 003°34'0 0.0
2018-May-17 10:30N 52°09' E 003°34'0 0.0
2018-May-17 10:00N 52°09' E 003°34'0 0.0
2018-May-17 09:30N 52°09' E 003°34'0 0.0
2018-May-17 09:00N 52°09' E 003°34'0 0.1
2018-May-17 08:18N 52°09' E 003°34'0 0.1
2018-May-17 08:00N 52°09' E 003°34'0 0.0
2018-May-17 07:27N 52°09' E 003°34'0 0.1
2018-May-17 06:54N 52°09' E 003°34'0 0.1
2018-May-17 06:30N 52°09' E 003°34'0 0.1
2018-May-17 05:54N 52°09' E 003°34'0 0.1
2018-May-17 05:27N 52°09' E 003°34'0 0.1
2018-May-17 05:00N 52°09' E 003°34'0 0.1
2018-May-17 04:27N 52°09' E 003°35'0 0.0
2018-May-17 04:00N 52°09' E 003°35'0 0.0
2018-May-17 03:24N 52°09' E 003°35'0 0.0
2018-May-17 02:45N 52°09' E 003°35'0 0.0
2018-May-17 02:27N 52°09' E 003°35'0 0.1
2018-May-17 02:00N 52°09' E 003°35'0 0.0
2018-May-17 01:27N 52°09' E 003°35'0 0.1
2018-May-17 01:00N 52°09' E 003°35'0 0.3
2018-May-17 00:30N 52°09' E 003°34'0 0.0
2018-May-16 23:57N 52°09' E 003°34'0 0.1
2018-May-16 23:30N 52°09' E 003°34'0 0.0
2018-May-16 22:54N 52°09' E 003°34'0 0.1
2018-May-16 22:30N 52°09' E 003°34'0 0.0
2018-May-16 22:00N 52°09' E 003°34'0 0.0
2018-May-16 21:30N 52°09' E 003°34'0 0.0
2018-May-16 20:57N 52°09' E 003°34'0 0.0
2018-May-16 20:27N 52°09' E 003°34'0 0.1
2018-May-16 20:00N 52°09' E 003°34'0 0.0
2018-May-16 19:30N 52°09' E 003°34'0 0.0
2018-May-16 18:57N 52°09' E 003°34'0 0.1
2018-May-16 18:30N 52°09' E 003°34'0 0.1
2018-May-16 17:57N 52°09' E 003°34'0 0.1
2018-May-16 17:30N 52°09' E 003°34'0 0.1
2018-May-16 16:57N 52°09' E 003°34'0 0.1
2018-May-16 16:30N 52°09' E 003°34'0 0.0
2018-May-16 16:00N 52°09' E 003°34'0 0.1
2018-May-16 15:30N 52°09' E 003°35'0 0.0
2018-May-16 14:51N 52°09' E 003°35'0 0.0
2018-May-16 14:27N 52°09' E 003°35'0 0.0
2018-May-16 13:51N 52°09' E 003°34'0 0.0
2018-May-16 13:21N 52°09' E 003°35'0 0.0
2018-May-16 12:57N 52°09' E 003°35'0 0.0
2018-May-16 12:30N 52°09' E 003°34'0 0.2
2018-May-16 12:00N 52°09' E 003°34'0 0.0
2018-May-16 11:27N 52°09' E 003°34'0 0.1
2018-May-16 11:00N 52°09' E 003°34'0 0.0
2018-May-16 10:21N 52°09' E 003°34'0 0.1
2018-May-16 10:00N 52°09' E 003°34'0 0.0
2018-May-16 09:30N 52°09' E 003°34'0 0.0
2018-May-16 09:00N 52°09' E 003°34'0 0.0
2018-May-16 08:30N 52°09' E 003°34'0 0.0
2018-May-16 07:48N 52°09' E 003°34'0 0.0
2018-May-16 07:30N 52°09' E 003°34'0 0.1
2018-May-16 07:00N 52°09' E 003°34'0 0.1
2018-May-16 06:30N 52°09' E 003°34'0 0.1
2018-May-16 05:57N 52°09' E 003°34'0 0.0
2018-May-16 05:30N 52°09' E 003°34'0 0.1
2018-May-16 04:54N 52°09' E 003°35'0 0.2
2018-May-16 04:30N 52°09' E 003°35'0 0.1
2018-May-16 04:00N 52°09' E 003°35'0 0.1
2018-May-16 03:30N 52°09' E 003°35'0 0.0
2018-May-16 03:00N 52°09' E 003°35'0 0.0
2018-May-16 02:30N 52°09' E 003°35'0 0.0
2018-May-16 02:00N 52°09' E 003°35'0 0.1
2018-May-16 01:30N 52°09' E 003°35'0 0.2
2018-May-16 01:00N 52°09' E 003°35'0 0.2
2018-May-16 00:30N 52°09' E 003°35'0 0.1
2018-May-16 00:00N 52°09' E 003°34'0 0.0
2018-May-15 23:30N 52°09' E 003°34'0 0.0
2018-May-15 22:54N 52°09' E 003°34'0 0.0
2018-May-15 22:30N 52°09' E 003°34'0 0.0
2018-May-15 21:30N 52°09' E 003°34'0 0.0
2018-May-15 21:00N 52°09' E 003°34'0 0.0
2018-May-15 20:30N 52°09' E 003°34'0 0.0
2018-May-15 20:00N 52°09' E 003°34'0 0.0
2018-May-15 19:30N 52°09' E 003°34'0 0.0
2018-May-15 19:00N 52°09' E 003°34'0 0.0
2018-May-15 18:30N 52°09' E 003°34'0 0.1
2018-May-15 18:00N 52°09' E 003°34'0 0.1
2018-May-15 17:30N 52°09' E 003°35'0 0.2
2018-May-15 16:54N 52°09' E 003°35'0 0.2
2018-May-15 16:30N 52°09' E 003°35'0 0.0
2018-May-15 16:00N 52°09' E 003°35'0 0.0
2018-May-15 15:30N 52°09' E 003°35'0 0.0
2018-May-15 15:00N 52°09' E 003°35'0 0.0
2018-May-15 14:30N 52°09' E 003°35'0 0.0
2018-May-15 14:00N 52°09' E 003°35'0 0.0
2018-May-15 13:27N 52°09' E 003°35'0 0.1
2018-May-15 12:57N 52°09' E 003°35'0 0.2
2018-May-15 12:30N 52°09' E 003°35'0 0.1
2018-May-15 11:57N 52°09' E 003°34'0 0.1
2018-May-15 11:30N 52°09' E 003°34'0 0.0
2018-May-15 11:00N 52°09' E 003°34'0 0.0
2018-May-15 10:30N 52°09' E 003°34'0 0.0
2018-May-15 10:00N 52°09' E 003°34'0 0.0
2018-May-15 09:27N 52°09' E 003°34'0 0.0
2018-May-15 08:54N 52°09' E 003°34'0 0.0
2018-May-15 08:30N 52°09' E 003°34'0 0.0
2018-May-15 08:00N 52°09' E 003°34'0 0.0
2018-May-15 07:30N 52°09' E 003°34'0 0.0
2018-May-15 07:00N 52°09' E 003°34'0 0.0
2018-May-15 06:30N 52°09' E 003°34'0 0.0
2018-May-15 05:54N 52°09' E 003°35'0 0.0
2018-May-15 04:54N 52°09' E 003°35'0 0.1
2018-May-15 04:24N 52°09' E 003°35'0 0.1
2018-May-15 03:54N 52°09' E 003°35'0 0.0
2018-May-15 03:24N 52°09' E 003°35'0 0.0
2018-May-15 02:54N 52°09' E 003°35'0 0.1
2018-May-15 02:30N 52°09' E 003°35'0 0.1
2018-May-15 02:00N 52°09' E 003°35'0 0.1
2018-May-15 01:27N 52°09' E 003°35'0 0.0
2018-May-15 00:57N 52°09' E 003°35'0 0.1
2018-May-15 00:24N 52°09' E 003°35'0 0.2
2018-May-15 00:00N 52°09' E 003°35'  

Dump ship's entire track history